Fulda, Minnesota
Current Conditions -  °F | °C
As of 10:54 PM on Wednesday 22 Oct 2014 (Local Time) from KDVP Reporting Station
Haze Haze  
Wind Chill: 56°   Ceiling: 400
Heat Index: 56°   Visibility: 3mi
Dew Point: 56°   Wind: 13mph
Humidity: 99%   Direction: 250°WSW
Pressure: 30.02"   Gusts: NA
Location:  43.87°N, 95.6°W
Report Text: KDVP 230354Z AUTO 25011KT 3SM BR OVC004 13/13 A3002 RMK AO2 T01320131
Loading
Personal Weather Stations






























Interactive Weather Map
Tropical Storm Tracking
New forecast layout! Learn more

10-Day Weather Forecast

Advertisements
Track Severe Weather on mobile